createdAt,value
2018-07-02T00:00:59.376Z,77.90
2018-07-02T00:03:27.837Z,77.90
2018-07-02T00:06:07.712Z,78.40
2018-07-02T00:08:36.174Z,79.10
2018-07-02T00:11:04.669Z,79.40
2018-07-02T00:16:01.360Z,80.10
2018-07-02T00:18:29.789Z,80.50
2018-07-02T00:20:58.331Z,81.40
2018-07-02T00:23:26.776Z,82.20
2018-07-02T00:25:55.275Z,82.40
2018-07-02T00:28:23.709Z,83.10
2018-07-02T00:33:20.340Z,84.00
2018-07-02T00:35:48.816Z,84.90
2018-07-02T00:40:45.433Z,84.70
2018-07-02T00:43:13.885Z,85.30
2018-07-02T00:48:10.524Z,85.90
2018-07-02T00:50:38.997Z,86.50
2018-07-02T00:53:07.547Z,87.70
2018-07-02T00:55:35.996Z,88.20
2018-07-02T00:58:04.528Z,88.00
2018-07-02T01:00:33.042Z,88.70
2018-07-02T01:03:01.518Z,89.60
2018-07-02T01:05:29.989Z,89.90
2018-07-02T01:07:58.492Z,90.30
2018-07-02T01:10:26.968Z,90.80
2018-07-02T01:12:55.416Z,91.00
2018-07-02T01:15:23.864Z,91.90
2018-07-02T01:17:52.344Z,93.50
2018-07-02T01:20:20.845Z,94.40
2018-07-02T01:22:49.292Z,94.30
2018-07-02T01:25:17.768Z,94.40
2018-07-02T01:27:46.208Z,94.40
2018-07-02T01:30:14.698Z,94.40
2018-07-02T01:32:43.181Z,94.00
2018-07-02T01:35:11.700Z,93.70
2018-07-02T01:37:40.186Z,94.20
2018-07-02T01:40:08.712Z,94.90
2018-07-02T01:42:37.232Z,95.30
2018-07-02T01:45:05.879Z,95.60
2018-07-02T01:47:34.332Z,96.20
2018-07-02T01:50:02.860Z,96.50
2018-07-02T01:52:31.335Z,97.20
2018-07-02T01:54:59.892Z,97.30
2018-07-02T01:57:28.364Z,98.20
2018-07-02T01:59:56.804Z,98.60
2018-07-02T02:02:25.292Z,98.90
2018-07-02T02:04:53.751Z,99.20
2018-07-02T02:07:22.484Z,99.70
2018-07-02T02:09:50.984Z,99.90
2018-07-02T02:12:19.436Z,99.90
2018-07-02T02:14:47.905Z,99.90
2018-07-02T02:17:16.369Z,99.90
2018-07-02T02:19:44.834Z,99.90
2018-07-02T02:22:13.323Z,99.90
2018-07-02T02:24:41.765Z,99.90
2018-07-02T02:27:10.309Z,99.90
2018-07-02T02:29:38.901Z,99.90
2018-07-02T02:32:07.384Z,99.90
2018-07-02T02:34:35.812Z,99.90
2018-07-02T02:37:04.309Z,99.90
2018-07-02T02:39:32.786Z,99.90
2018-07-02T02:42:01.278Z,99.90
2018-07-02T02:44:29.737Z,99.90
2018-07-02T02:46:58.241Z,99.90
2018-07-02T02:49:26.685Z,99.90
2018-07-02T02:51:55.221Z,99.90
2018-07-02T02:54:23.683Z,99.90
2018-07-02T02:56:52.178Z,99.90
2018-07-02T02:59:20.606Z,99.90
2018-07-02T03:01:49.067Z,99.90
2018-07-02T03:04:17.568Z,99.90
2018-07-02T03:06:45.997Z,99.90
2018-07-02T03:09:14.453Z,99.90
2018-07-02T03:11:42.881Z,99.90
2018-07-02T03:14:11.460Z,99.90
2018-07-02T03:16:39.918Z,99.90
2018-07-02T03:19:08.497Z,99.90
2018-07-02T03:21:36.928Z,99.90
2018-07-02T03:24:05.418Z,99.90
2018-07-02T03:26:33.848Z,99.90
2018-07-02T03:29:02.305Z,99.90
2018-07-02T03:31:30.738Z,99.90
2018-07-02T03:33:59.196Z,99.90
2018-07-02T03:36:27.624Z,99.90
2018-07-02T03:38:56.080Z,99.90
2018-07-02T03:41:24.537Z,99.90
2018-07-02T03:43:52.988Z,99.90
2018-07-02T03:46:21.436Z,99.90
2018-07-02T03:48:49.936Z,99.90
2018-07-02T03:51:18.396Z,99.90
2018-07-02T03:53:46.866Z,99.90
2018-07-02T03:56:15.474Z,99.90
2018-07-02T03:58:43.974Z,99.90
2018-07-02T04:01:12.468Z,99.90
2018-07-02T04:03:41.029Z,99.90
2018-07-02T04:06:09.486Z,99.90
2018-07-02T04:08:37.976Z,99.90
2018-07-02T04:11:06.577Z,99.90
2018-07-02T04:13:35.149Z,99.90
2018-07-02T04:16:04.033Z,99.40
2018-07-02T04:18:32.708Z,99.30
2018-07-02T04:21:01.181Z,99.40
2018-07-02T04:23:29.640Z,99.90
2018-07-02T04:25:58.132Z,98.70
2018-07-02T04:28:26.697Z,99.80
2018-07-02T04:30:55.248Z,99.90
2018-07-02T04:33:23.696Z,99.90
2018-07-02T04:35:52.148Z,99.90
2018-07-02T04:38:20.632Z,99.90
2018-07-02T04:40:49.118Z,99.90
2018-07-02T04:43:17.624Z,98.30
2018-07-02T04:45:46.147Z,98.30
2018-07-02T04:48:14.578Z,97.50
2018-07-02T04:50:43.080Z,97.10
2018-07-02T04:53:11.525Z,97.00
2018-07-02T04:55:40.026Z,97.00
2018-07-02T04:58:08.473Z,96.20
2018-07-02T05:00:37.305Z,96.40
2018-07-02T05:03:05.868Z,96.80
2018-07-02T05:05:34.309Z,95.60
2018-07-02T05:08:02.761Z,94.40
2018-07-02T05:10:31.258Z,95.20
2018-07-02T05:12:59.784Z,93.20
2018-07-02T05:15:28.241Z,93.10
2018-07-02T05:17:56.664Z,93.50
2018-07-02T05:20:25.112Z,93.60
2018-07-02T05:22:53.716Z,93.50
2018-07-02T05:25:22.173Z,94.20
2018-07-02T05:27:51.760Z,93.90
2018-07-02T05:30:20.237Z,94.10
2018-07-02T05:32:48.805Z,93.00
2018-07-02T05:35:17.216Z,91.50
2018-07-02T05:37:45.672Z,92.40
2018-07-02T05:40:14.106Z,92.70
2018-07-02T05:42:42.552Z,92.40
2018-07-02T05:45:10.989Z,92.20
2018-07-02T05:47:39.436Z,92.00
2018-07-02T05:50:07.879Z,91.80
2018-07-02T05:52:36.332Z,91.80
2018-07-02T05:55:04.886Z,90.70
2018-07-02T05:57:33.304Z,91.10
2018-07-02T06:00:01.760Z,90.80
2018-07-02T06:02:30.185Z,90.70
2018-07-02T06:04:58.624Z,91.00
2018-07-02T06:07:27.092Z,90.70
2018-07-02T06:09:55.742Z,91.00
2018-07-02T06:12:24.231Z,90.50
2018-07-02T06:14:52.810Z,90.50
2018-07-02T06:17:21.260Z,91.00
2018-07-02T06:19:49.915Z,86.80
2018-07-02T06:22:18.370Z,87.90
2018-07-02T06:24:46.844Z,86.30
2018-07-02T06:27:15.300Z,87.00
2018-07-02T06:29:44.062Z,89.30
2018-07-02T06:32:12.544Z,88.60
2018-07-02T06:34:41.272Z,86.20
2018-07-02T06:39:37.912Z,86.60
2018-07-02T06:42:06.471Z,87.00
2018-07-02T06:44:34.876Z,84.00
2018-07-02T06:47:03.358Z,84.60
2018-07-02T06:49:31.812Z,84.10
2018-07-02T06:52:00.305Z,84.00
2018-07-02T06:54:28.753Z,85.80
2018-07-02T06:56:57.260Z,86.90
2018-07-02T06:59:25.728Z,85.20
2018-07-02T07:01:54.145Z,84.30
2018-07-02T07:04:22.597Z,85.40
2018-07-02T07:06:51.038Z,83.00
2018-07-02T07:09:19.589Z,84.10
2018-07-02T07:11:48.025Z,83.30
2018-07-02T07:14:16.505Z,84.00
2018-07-02T07:16:44.974Z,81.40
2018-07-02T07:19:13.384Z,79.30
2018-07-02T07:21:41.830Z,78.50
2018-07-02T07:24:10.260Z,80.50
2018-07-02T07:26:38.826Z,78.40
2018-07-02T07:31:35.382Z,78.80
2018-07-02T07:34:03.945Z,79.10
2018-07-02T07:36:32.444Z,80.50
2018-07-02T07:39:00.897Z,78.20
2018-07-02T07:41:29.361Z,76.70
2018-07-02T07:43:57.837Z,77.60
2018-07-02T07:46:26.266Z,78.70
2018-07-02T07:48:54.721Z,78.50
2018-07-02T07:51:23.190Z,79.60
2018-07-02T07:53:51.645Z,77.20
2018-07-02T07:56:20.112Z,78.20
2018-07-02T07:58:48.544Z,77.40
2018-07-02T08:01:17.040Z,77.20
2018-07-02T08:03:45.579Z,77.20
2018-07-02T08:06:14.026Z,79.90
2018-07-02T08:08:42.458Z,78.50
2018-07-02T08:11:10.897Z,76.30
2018-07-02T08:13:39.366Z,77.00
2018-07-02T08:16:07.812Z,77.60
2018-07-02T08:18:36.306Z,77.50
2018-07-02T08:21:04.741Z,76.30
2018-07-02T08:23:33.181Z,77.00
2018-07-02T08:26:01.766Z,76.30
2018-07-02T08:28:30.482Z,75.60
2018-07-02T08:30:58.976Z,76.30
2018-07-02T08:33:27.400Z,74.60
2018-07-02T08:35:55.940Z,74.00
2018-07-02T08:38:24.394Z,73.50
2018-07-02T08:40:53.204Z,71.80
2018-07-02T08:43:21.645Z,71.30
2018-07-02T08:45:50.100Z,71.40
2018-07-02T08:48:18.569Z,72.50
2018-07-02T08:50:47.126Z,73.00
2018-07-02T08:53:15.658Z,70.80
2018-07-02T08:55:44.146Z,71.30
2018-07-02T08:58:12.785Z,69.50
2018-07-02T09:00:41.341Z,69.40
2018-07-02T09:03:09.764Z,70.80
2018-07-02T09:05:38.508Z,69.70
2018-07-02T09:08:07.388Z,68.40
2018-07-02T09:10:35.848Z,69.50
2018-07-02T09:13:04.739Z,69.60
2018-07-02T09:15:33.472Z,69.20
2018-07-02T09:18:01.992Z,69.10
2018-07-02T09:20:30.610Z,67.80
2018-07-02T09:22:58.976Z,66.40
2018-07-02T09:25:27.805Z,67.00
2018-07-02T09:27:56.264Z,67.40
2018-07-02T09:30:24.709Z,67.10
2018-07-02T09:32:53.148Z,67.00
2018-07-02T09:35:21.728Z,67.50
2018-07-02T09:37:50.350Z,65.20
2018-07-02T09:40:18.710Z,64.00
2018-07-02T09:42:47.317Z,65.20
2018-07-02T09:45:15.822Z,64.60
2018-07-02T09:47:44.266Z,62.50
2018-07-02T09:50:13.018Z,63.70
2018-07-02T09:52:41.485Z,63.20
2018-07-02T09:55:10.344Z,63.50
2018-07-02T09:57:38.976Z,63.20
2018-07-02T10:00:07.480Z,62.80
2018-07-02T10:02:36.642Z,62.20
2018-07-02T10:05:05.171Z,64.70
2018-07-02T10:07:33.989Z,60.30
2018-07-02T10:10:02.467Z,60.50
2018-07-02T10:14:59.269Z,59.20
2018-07-02T10:17:27.756Z,59.50
2018-07-02T10:19:56.200Z,60.40
2018-07-02T10:22:24.662Z,59.50
2018-07-02T10:24:53.113Z,58.50
2018-07-02T10:27:21.569Z,58.40
2018-07-02T10:29:50.012Z,58.50
2018-07-02T10:32:18.453Z,58.20
2018-07-02T10:34:46.906Z,57.80
2018-07-02T10:37:15.536Z,53.70
2018-07-02T10:39:43.977Z,55.50
2018-07-02T10:42:12.432Z,52.80
2018-07-02T10:44:40.896Z,53.90
2018-07-02T10:49:37.509Z,53.70
2018-07-02T10:52:05.981Z,53.00
2018-07-02T10:54:34.489Z,52.00
2018-07-02T10:57:02.964Z,51.70
2018-07-02T10:59:31.404Z,51.40
2018-07-02T11:01:59.858Z,50.80
2018-07-02T11:04:28.281Z,50.00
2018-07-02T11:06:56.745Z,50.80
2018-07-02T11:09:25.222Z,49.30
2018-07-02T11:11:53.743Z,50.00
2018-07-02T11:14:22.343Z,48.90
2018-07-02T11:16:50.852Z,49.80
2018-07-02T11:19:19.397Z,49.20
2018-07-02T11:21:48.038Z,49.00
2018-07-02T11:24:16.537Z,47.40
2018-07-02T11:26:45.325Z,47.90
2018-07-02T11:29:13.813Z,47.90
2018-07-02T11:31:42.291Z,47.20
2018-07-02T11:34:10.732Z,47.20
2018-07-02T11:36:39.181Z,46.40
2018-07-02T11:39:09.556Z,47.00
2018-07-02T11:41:38.074Z,47.30
2018-07-02T11:44:06.987Z,46.80
2018-07-02T11:46:36.025Z,46.20
2018-07-02T11:49:04.508Z,46.70
2018-07-02T11:51:33.009Z,47.90
2018-07-02T11:54:01.457Z,45.00
2018-07-02T11:56:29.877Z,46.80
2018-07-02T11:58:58.428Z,47.00
2018-07-02T12:01:26.901Z,45.50
2018-07-02T12:03:55.377Z,46.20
2018-07-02T12:06:23.801Z,47.10
2018-07-02T12:08:52.336Z,46.90
2018-07-02T12:11:20.800Z,45.80
2018-07-02T12:13:49.246Z,45.00
2018-07-02T12:16:17.680Z,45.90
2018-07-02T12:18:46.174Z,47.20
2018-07-02T12:21:14.591Z,46.10
2018-07-02T12:23:43.047Z,46.60
2018-07-02T12:26:11.562Z,47.70
2018-07-02T12:28:39.991Z,47.30
2018-07-02T12:31:08.420Z,46.00
2018-07-02T12:33:36.913Z,44.20
2018-07-02T12:36:05.565Z,43.10
2018-07-02T12:38:34.005Z,44.70
2018-07-02T12:41:02.457Z,45.80
2018-07-02T12:43:30.892Z,43.30
2018-07-02T12:45:59.324Z,43.90
2018-07-02T12:48:27.757Z,45.00
2018-07-02T12:53:24.341Z,43.50
2018-07-02T12:55:52.776Z,43.10
2018-07-02T12:58:21.225Z,44.30
2018-07-02T13:00:49.956Z,45.20
2018-07-02T13:03:18.423Z,44.40
2018-07-02T13:05:46.918Z,43.40
2018-07-02T13:08:15.394Z,44.20
2018-07-02T13:10:43.856Z,42.80
2018-07-02T13:13:12.342Z,42.70
2018-07-02T13:15:40.809Z,42.10
2018-07-02T13:18:09.265Z,41.90
2018-07-02T13:20:37.800Z,41.90
2018-07-02T13:23:06.304Z,41.60
2018-07-02T13:25:34.775Z,41.60
2018-07-02T13:28:03.240Z,42.10
2018-07-02T13:30:31.765Z,42.60
2018-07-02T13:33:00.296Z,42.80
2018-07-02T13:35:28.773Z,43.10
2018-07-02T13:37:57.221Z,42.60
2018-07-02T13:40:25.677Z,42.20
2018-07-02T13:42:54.125Z,42.60
2018-07-02T13:45:22.567Z,41.00
2018-07-02T13:47:51.022Z,41.90
2018-07-02T13:50:19.805Z,41.80
2018-07-02T13:52:48.325Z,41.30
2018-07-02T13:55:16.749Z,41.50
2018-07-02T13:57:45.191Z,40.80
2018-07-02T14:00:13.649Z,41.50
2018-07-02T14:02:42.157Z,40.50
2018-07-02T14:05:11.297Z,40.70
2018-07-02T14:07:39.741Z,40.90
2018-07-02T14:10:08.200Z,41.30
2018-07-02T14:12:36.778Z,40.00
2018-07-02T14:15:06.965Z,40.90
2018-07-02T14:17:35.440Z,40.50
2018-07-02T14:20:04.073Z,40.80
2018-07-02T14:22:32.484Z,40.20
2018-07-02T14:25:01.000Z,40.10
2018-07-02T14:27:29.533Z,41.70
2018-07-02T14:29:57.953Z,41.50
2018-07-02T14:32:26.441Z,41.00
2018-07-02T14:34:54.885Z,39.90
2018-07-02T14:37:23.372Z,39.60
2018-07-02T14:39:51.800Z,40.30
2018-07-02T14:42:20.265Z,39.40
2018-07-02T14:44:48.848Z,40.90
2018-07-02T14:47:17.249Z,41.20
2018-07-02T14:49:45.736Z,41.10
2018-07-02T14:52:14.295Z,39.70
2018-07-02T14:54:42.893Z,39.80
2018-07-02T14:57:11.345Z,39.60
2018-07-02T14:59:39.889Z,39.40
2018-07-02T15:02:08.439Z,39.60
2018-07-02T15:04:36.884Z,38.10
2018-07-02T15:07:05.409Z,37.60
2018-07-02T15:09:33.901Z,39.30
2018-07-02T15:12:02.386Z,40.20
2018-07-02T15:14:30.815Z,39.90
2018-07-02T15:16:59.247Z,39.70
2018-07-02T15:19:27.700Z,40.50
2018-07-02T15:21:56.181Z,39.90
2018-07-02T15:24:24.814Z,40.90
2018-07-02T15:26:53.417Z,40.60
2018-07-02T15:31:49.983Z,39.10
2018-07-02T15:34:18.400Z,40.00
2018-07-02T15:36:46.915Z,40.90
2018-07-02T15:39:15.505Z,40.80
2018-07-02T15:41:44.025Z,41.30
2018-07-02T15:44:12.589Z,41.90
2018-07-02T15:46:41.049Z,41.70
2018-07-02T15:49:09.490Z,40.80
2018-07-02T15:51:37.952Z,39.70
2018-07-02T15:54:06.417Z,40.90
2018-07-02T15:56:34.860Z,40.70
2018-07-02T15:59:03.385Z,39.50
2018-07-02T16:01:31.830Z,40.10
2018-07-02T16:06:28.484Z,40.00
2018-07-02T16:08:56.884Z,41.50
2018-07-02T16:11:25.301Z,41.40
2018-07-02T16:13:54.021Z,40.70
2018-07-02T16:16:22.472Z,41.50
2018-07-02T16:18:50.940Z,41.00
2018-07-02T16:21:19.389Z,40.90
2018-07-02T16:23:47.821Z,40.60
2018-07-02T16:26:16.277Z,41.40
2018-07-02T16:28:44.737Z,41.10
2018-07-02T16:31:13.341Z,40.30
2018-07-02T16:33:41.774Z,40.40
2018-07-02T16:36:10.223Z,40.90
2018-07-02T16:38:38.685Z,41.40
2018-07-02T16:41:07.156Z,40.90
2018-07-02T16:43:35.737Z,40.60
2018-07-02T16:46:04.446Z,41.10
2018-07-02T16:48:32.893Z,41.00
2018-07-02T16:51:01.342Z,40.90
2018-07-02T16:53:29.803Z,41.60
2018-07-02T16:55:58.552Z,40.30
2018-07-02T16:58:27.016Z,40.40
2018-07-02T17:00:55.512Z,40.10
2018-07-02T17:03:23.972Z,41.30
2018-07-02T17:05:52.420Z,40.90
2018-07-02T17:08:20.901Z,40.00
2018-07-02T17:10:49.332Z,39.70
2018-07-02T17:13:17.830Z,39.60
2018-07-02T17:15:46.891Z,39.90
2018-07-02T17:18:15.404Z,40.60
2018-07-02T17:20:43.890Z,39.50
2018-07-02T17:23:12.397Z,39.80
2018-07-02T17:25:40.833Z,41.00
2018-07-02T17:28:09.280Z,41.20
2018-07-02T17:30:37.802Z,41.00
2018-07-02T17:33:06.324Z,41.10
2018-07-02T17:35:35.533Z,41.20
2018-07-02T17:38:04.068Z,40.20
2018-07-02T17:40:32.548Z,40.00
2018-07-02T17:47:57.367Z,40.80
2018-07-02T17:50:25.864Z,41.00
2018-07-02T17:52:54.334Z,41.50
2018-07-02T17:55:22.793Z,41.10
2018-07-02T17:57:51.245Z,40.90
2018-07-02T18:00:19.674Z,41.40
2018-07-02T18:02:48.156Z,41.60
2018-07-02T18:05:16.589Z,41.60
2018-07-02T18:07:45.046Z,41.50
2018-07-02T18:10:13.497Z,43.90
2018-07-02T18:12:41.996Z,44.60
2018-07-02T18:15:10.460Z,45.10
2018-07-02T18:17:38.990Z,46.00
2018-07-02T18:20:07.510Z,45.50
2018-07-02T18:22:36.424Z,45.50
2018-07-02T18:25:04.922Z,45.90
2018-07-02T18:27:33.399Z,46.00
2018-07-02T18:30:01.844Z,46.00
2018-07-02T18:34:59.011Z,47.10
2018-07-02T18:37:27.514Z,47.80
2018-07-02T18:39:55.981Z,47.60
2018-07-02T18:42:26.213Z,47.70
2018-07-02T18:44:54.708Z,47.70
2018-07-02T18:47:23.162Z,47.80
2018-07-02T18:49:51.611Z,48.00
2018-07-02T18:52:20.185Z,48.30
2018-07-02T18:54:48.621Z,48.80
2018-07-02T18:57:17.071Z,48.60
2018-07-02T19:02:13.720Z,49.20
2018-07-02T19:04:42.191Z,49.60
2018-07-02T19:09:38.818Z,50.40
2018-07-02T19:12:07.349Z,50.60
2018-07-02T19:14:35.809Z,50.40
2018-07-02T19:17:04.319Z,50.80
2018-07-02T19:19:33.806Z,51.10
2018-07-02T19:22:02.309Z,51.50
2018-07-02T19:24:30.816Z,51.90
2018-07-02T19:26:59.313Z,51.90
2018-07-02T19:29:27.899Z,52.40
2018-07-02T19:31:56.372Z,52.80
2018-07-02T19:34:24.833Z,53.20
2018-07-02T19:36:53.347Z,53.80
2018-07-02T19:39:21.822Z,54.10
2018-07-02T19:41:50.311Z,54.30
2018-07-02T19:44:18.776Z,55.10
2018-07-02T19:46:47.236Z,55.00
2018-07-02T19:49:15.697Z,55.50
2018-07-02T19:51:44.209Z,55.80
2018-07-02T19:54:12.748Z,56.20
2018-07-02T19:56:41.272Z,56.40
2018-07-02T19:59:09.797Z,57.00
2018-07-02T20:01:38.253Z,57.60
2018-07-02T20:04:07.012Z,59.20
2018-07-02T20:06:35.518Z,58.20
2018-07-02T20:09:05.898Z,58.10
2018-07-02T20:11:34.351Z,58.10
2018-07-02T20:14:02.913Z,58.40
2018-07-02T20:16:31.428Z,58.70
2018-07-02T20:19:00.093Z,58.60
2018-07-02T20:21:28.566Z,58.80
2018-07-02T20:23:57.081Z,59.30
2018-07-02T20:26:25.465Z,59.90
2018-07-02T20:28:53.914Z,60.30
2018-07-02T20:31:22.341Z,61.10
2018-07-02T20:36:18.965Z,60.50
2018-07-02T20:38:47.392Z,59.80
2018-07-02T20:41:15.848Z,59.90
2018-07-02T20:43:44.297Z,60.00
2018-07-02T20:46:12.732Z,59.60
2018-07-02T20:48:41.178Z,59.30
2018-07-02T20:51:09.636Z,59.00
2018-07-02T20:53:38.150Z,59.30
2018-07-02T20:56:06.880Z,59.40
2018-07-02T20:58:35.444Z,59.50
2018-07-02T21:01:04.152Z,59.60
2018-07-02T21:03:32.726Z,59.90
2018-07-02T21:06:01.230Z,60.10
2018-07-02T21:08:29.704Z,60.30
2018-07-02T21:10:58.249Z,60.70
2018-07-02T21:13:26.704Z,61.10
2018-07-02T21:15:55.213Z,60.90
2018-07-02T21:18:23.656Z,61.10
2018-07-02T21:20:52.121Z,61.30
2018-07-02T21:23:20.627Z,61.50
2018-07-02T21:25:49.081Z,61.80
2018-07-02T21:28:17.557Z,62.00
2018-07-02T21:30:46.032Z,62.50
2018-07-02T21:33:14.493Z,63.00
2018-07-02T21:35:42.928Z,63.70
2018-07-02T21:38:11.405Z,64.30
2018-07-02T21:40:39.850Z,64.80
2018-07-02T21:43:08.328Z,65.20
2018-07-02T21:45:36.816Z,65.40
2018-07-02T21:48:05.520Z,65.60
2018-07-02T21:50:33.972Z,65.90
2018-07-02T21:53:02.398Z,66.10
2018-07-02T21:55:30.857Z,66.60
2018-07-02T21:57:59.277Z,66.80
2018-07-02T22:00:27.801Z,67.30
2018-07-02T22:02:56.273Z,67.10
2018-07-02T22:05:24.761Z,67.50
2018-07-02T22:07:53.198Z,68.30
2018-07-02T22:10:21.641Z,68.30
2018-07-02T22:12:50.120Z,69.50
2018-07-02T22:15:18.609Z,69.80
2018-07-02T22:17:47.120Z,70.50
2018-07-02T22:20:15.544Z,71.10
2018-07-02T22:22:44.000Z,72.60
2018-07-02T22:25:12.457Z,72.90
2018-07-02T22:27:40.941Z,73.00
2018-07-02T22:30:09.388Z,73.10
2018-07-02T22:32:37.965Z,72.90
2018-07-02T22:35:06.761Z,72.90
2018-07-02T22:37:35.328Z,72.90
2018-07-02T22:42:31.969Z,73.50
2018-07-02T22:45:00.390Z,73.80
2018-07-02T22:47:28.832Z,74.30
2018-07-02T22:49:57.281Z,74.90
2018-07-02T22:52:25.708Z,75.10
2018-07-02T22:54:54.259Z,76.20
2018-07-02T22:57:22.722Z,75.50
2018-07-02T22:59:51.164Z,75.80
2018-07-02T23:02:19.649Z,75.80
2018-07-02T23:04:48.109Z,75.00
2018-07-02T23:07:16.538Z,75.00
2018-07-02T23:09:45.373Z,74.80
2018-07-02T23:12:13.820Z,74.90
2018-07-02T23:14:42.302Z,74.60
2018-07-02T23:17:10.768Z,74.30
2018-07-02T23:19:39.241Z,74.70
2018-07-02T23:22:07.696Z,76.00
2018-07-02T23:24:36.157Z,76.70
2018-07-02T23:27:04.653Z,78.90
2018-07-02T23:29:33.144Z,81.80
2018-07-02T23:32:01.621Z,83.30
2018-07-02T23:34:30.117Z,84.20
2018-07-02T23:36:58.612Z,87.10
2018-07-02T23:39:26.989Z,89.90
2018-07-02T23:41:55.426Z,91.10
2018-07-02T23:44:23.856Z,91.90
2018-07-02T23:46:52.281Z,93.40
2018-07-02T23:49:20.745Z,93.70
2018-07-02T23:51:49.174Z,94.60
2018-07-02T23:54:17.760Z,96.30
2018-07-02T23:56:46.203Z,98.30
2018-07-02T23:59:14.676Z,99.00
